createdAt,value
2018-04-17T00:00:20.417Z,63.29
2018-04-17T00:02:49.746Z,63.11
2018-04-17T00:05:19.853Z,63.48
2018-04-17T00:07:49.204Z,63.81
2018-04-17T00:10:18.525Z,63.67
2018-04-17T00:12:47.866Z,64.26
2018-04-17T00:15:17.960Z,64.04
2018-04-17T00:17:47.300Z,63.85
2018-04-17T00:20:17.413Z,63.86
2018-04-17T00:22:47.296Z,63.96
2018-04-17T00:25:16.619Z,63.99
2018-04-17T00:27:45.965Z,64.34
2018-04-17T00:30:15.283Z,64.38
2018-04-17T00:32:44.611Z,64.40
2018-04-17T00:35:13.960Z,64.62
2018-04-17T00:37:43.295Z,64.98
2018-04-17T00:40:12.606Z,65.29
2018-04-17T00:42:41.960Z,65.26
2018-04-17T00:45:12.108Z,65.37
2018-04-17T00:47:42.159Z,65.43
2018-04-17T00:50:11.494Z,65.41
2018-04-17T00:52:41.619Z,65.81
2018-04-17T00:55:11.713Z,65.77
2018-04-17T00:57:41.032Z,65.86
2018-04-17T01:00:10.366Z,65.87
2018-04-17T01:02:39.687Z,66.35
2018-04-17T01:05:09.020Z,66.58
2018-04-17T01:07:38.331Z,66.67
2018-04-17T01:10:07.660Z,66.76
2018-04-17T01:12:38.502Z,66.83
2018-04-17T01:15:08.589Z,66.86
2018-04-17T01:17:37.924Z,67.14
2018-04-17T01:20:07.992Z,67.48
2018-04-17T01:22:37.303Z,67.69
2018-04-17T01:25:06.635Z,67.46
2018-04-17T01:27:35.943Z,67.34
2018-04-17T01:30:05.239Z,67.11
2018-04-17T01:32:34.563Z,67.22
2018-04-17T01:35:04.669Z,67.39
2018-04-17T01:37:33.967Z,67.62
2018-04-17T01:40:04.053Z,67.53
2018-04-17T01:42:33.384Z,67.80
2018-04-17T01:45:02.707Z,68.05
2018-04-17T01:47:32.816Z,68.23
2018-04-17T01:50:02.135Z,68.20
2018-04-17T01:52:31.465Z,67.81
2018-04-17T01:55:00.817Z,67.58
2018-04-17T01:57:30.132Z,67.81
2018-04-17T02:00:00.223Z,67.71
2018-04-17T02:02:29.534Z,67.57
2018-04-17T02:04:58.859Z,67.41
2018-04-17T02:07:28.943Z,67.61
2018-04-17T02:09:58.243Z,67.68
2018-04-17T02:12:27.572Z,67.69
2018-04-17T02:14:56.875Z,67.65
2018-04-17T02:17:26.189Z,67.54
2018-04-17T02:19:55.512Z,67.50
2018-04-17T02:22:25.011Z,67.58
2018-04-17T02:24:55.079Z,67.65
2018-04-17T02:27:24.409Z,67.73
2018-04-17T02:29:53.705Z,68.03
2018-04-17T02:32:23.157Z,68.00
2018-04-17T02:34:52.478Z,68.02
2018-04-17T02:37:21.802Z,68.09
2018-04-17T02:39:51.105Z,68.09
2018-04-17T02:42:20.409Z,68.28
2018-04-17T02:44:49.722Z,68.10
2018-04-17T02:47:19.026Z,68.14
2018-04-17T02:49:48.335Z,68.27
2018-04-17T02:52:17.647Z,68.26
2018-04-17T02:54:47.728Z,68.32
2018-04-17T02:57:18.054Z,68.40
2018-04-17T02:59:47.347Z,68.22
2018-04-17T03:02:16.774Z,68.15
2018-04-17T03:04:46.076Z,68.15
2018-04-17T03:07:15.412Z,68.54
2018-04-17T03:09:45.505Z,68.70
2018-04-17T03:12:14.790Z,68.87
2018-04-17T03:14:44.103Z,68.77
2018-04-17T03:17:13.425Z,68.77
2018-04-17T03:19:42.746Z,69.49
2018-04-17T03:22:12.822Z,69.52
2018-04-17T03:24:42.136Z,69.02
2018-04-17T03:27:11.427Z,69.76
2018-04-17T03:29:40.762Z,69.46
2018-04-17T03:32:10.845Z,69.83
2018-04-17T03:34:40.154Z,70.05
2018-04-17T03:37:09.475Z,70.78
2018-04-17T03:39:38.824Z,70.94
2018-04-17T03:42:08.119Z,70.82
2018-04-17T03:44:37.438Z,70.95
2018-04-17T03:47:06.743Z,71.24
2018-04-17T03:49:36.038Z,71.11
2018-04-17T03:52:05.358Z,71.09
2018-04-17T03:54:34.662Z,71.22
2018-04-17T03:57:04.848Z,71.02
2018-04-17T03:59:34.171Z,70.95
2018-04-17T04:02:03.494Z,71.19
2018-04-17T04:04:32.488Z,71.28
2018-04-17T04:07:01.496Z,71.18
2018-04-17T04:09:30.486Z,71.42
2018-04-17T04:11:59.503Z,70.69
2018-04-17T04:14:28.515Z,70.86
2018-04-17T04:17:16.149Z,71.08
2018-04-17T04:20:03.674Z,71.17
2018-04-17T04:26:12.961Z,70.84
2018-04-17T04:28:42.005Z,71.99
2018-04-17T04:31:11.022Z,71.22
2018-04-17T04:33:40.776Z,71.28
2018-04-17T04:36:10.086Z,71.33
2018-04-17T04:38:39.094Z,71.14
2018-04-17T04:41:08.399Z,71.27
2018-04-17T04:43:37.751Z,71.85
2018-04-17T04:46:06.743Z,71.53
2018-04-17T04:48:36.067Z,71.55
2018-04-17T04:51:05.077Z,71.25
2018-04-17T04:53:34.058Z,71.55
2018-04-17T04:56:03.382Z,71.63
2018-04-17T04:58:32.433Z,71.04
2018-04-17T05:01:02.190Z,70.91
2018-04-17T05:03:31.521Z,70.73
2018-04-17T05:06:00.548Z,70.95
2018-04-17T05:08:29.863Z,70.60
2018-04-17T05:10:59.185Z,70.84
2018-04-17T05:13:28.190Z,71.37
2018-04-17T05:15:57.214Z,71.36
2018-04-17T05:18:27.301Z,71.52
2018-04-17T05:20:56.633Z,71.69
2018-04-17T05:23:25.667Z,71.58
2018-04-17T05:25:54.997Z,71.42
2018-04-17T05:28:24.318Z,70.99
2018-04-17T05:30:53.355Z,70.74
2018-04-17T05:33:23.140Z,70.33
2018-04-17T05:35:52.117Z,69.67
2018-04-17T05:38:21.110Z,69.29
2018-04-17T05:40:50.451Z,69.09
2018-04-17T05:43:20.526Z,68.73
2018-04-17T05:45:49.526Z,68.19
2018-04-17T05:48:18.526Z,68.15
2018-04-17T05:50:47.545Z,67.33
2018-04-17T05:53:16.573Z,67.53
2018-04-17T05:55:45.920Z,67.05
2018-04-17T05:58:15.110Z,66.49
2018-04-17T06:00:44.442Z,66.39
2018-04-17T06:03:13.814Z,66.02
2018-04-17T06:05:42.815Z,65.26
2018-04-17T06:08:11.817Z,65.18
2018-04-17T06:10:41.157Z,65.04
2018-04-17T06:13:11.239Z,65.01
2018-04-17T06:15:40.268Z,64.58
2018-04-17T06:18:09.258Z,64.41
2018-04-17T06:20:39.032Z,64.10
2018-04-17T06:23:08.383Z,63.93
2018-04-17T06:25:38.470Z,63.17
2018-04-17T06:28:07.807Z,62.95
2018-04-17T06:30:37.880Z,61.92
2018-04-17T06:33:07.200Z,61.71
2018-04-17T06:35:36.218Z,61.33
2018-04-17T06:38:06.043Z,61.01
2018-04-17T06:40:36.124Z,60.75
2018-04-17T06:43:05.429Z,60.14
2018-04-17T06:45:34.448Z,59.89
2018-04-17T06:48:03.436Z,59.52
2018-04-17T06:50:32.759Z,59.24
2018-04-17T06:53:02.564Z,57.82
2018-04-17T06:55:31.546Z,57.67
2018-04-17T06:58:00.600Z,57.13
2018-04-17T07:00:30.331Z,56.35
2018-04-17T07:02:59.317Z,55.59
2018-04-17T07:05:28.326Z,54.78
2018-04-17T07:07:57.343Z,54.55
2018-04-17T07:10:26.376Z,54.07
2018-04-17T07:12:55.699Z,53.30
2018-04-17T07:15:25.001Z,52.53
2018-04-17T07:17:54.014Z,52.22
2018-04-17T07:20:23.346Z,50.95
2018-04-17T07:22:52.342Z,50.51
2018-04-17T07:25:21.337Z,50.21
2018-04-17T07:27:51.129Z,49.07
2018-04-17T07:30:20.466Z,48.08
2018-04-17T07:32:50.227Z,48.01
2018-04-17T07:35:19.229Z,47.05
2018-04-17T07:37:48.239Z,47.01
2018-04-17T07:40:17.253Z,45.28
2018-04-17T07:42:47.027Z,44.92
2018-04-17T07:45:16.028Z,44.42
2018-04-17T07:48:00.544Z,43.87
2018-04-17T07:50:29.541Z,43.10
2018-04-17T07:52:58.535Z,42.32
2018-04-17T07:55:27.545Z,41.09
2018-04-17T07:57:56.855Z,40.36
2018-04-17T08:00:26.183Z,40.01
2018-04-17T08:02:55.174Z,39.53
2018-04-17T08:05:24.169Z,38.41
2018-04-17T08:07:53.986Z,37.65
2018-04-17T08:10:23.406Z,38.10
2018-04-17T08:12:52.406Z,38.13
2018-04-17T08:15:21.758Z,37.53
2018-04-17T08:17:50.768Z,36.42
2018-04-17T08:20:19.749Z,34.96
2018-04-17T08:22:48.788Z,34.71
2018-04-17T08:25:17.778Z,35.26
2018-04-17T08:27:46.801Z,34.00
2018-04-17T08:30:16.879Z,34.35
2018-04-17T08:32:45.891Z,33.77
2018-04-17T08:35:15.208Z,33.94
2018-04-17T08:37:44.218Z,34.63
2018-04-17T08:40:14.027Z,34.07
2018-04-17T08:42:43.810Z,33.35
2018-04-17T08:45:13.111Z,34.19
2018-04-17T08:47:42.121Z,33.83
2018-04-17T08:50:11.116Z,33.06
2018-04-17T08:52:40.126Z,32.50
2018-04-17T08:55:09.905Z,33.27
2018-04-17T08:57:39.232Z,32.74
2018-04-17T09:00:08.255Z,31.70
2018-04-17T09:02:37.270Z,32.13
2018-04-17T09:05:06.268Z,30.96
2018-04-17T09:07:35.262Z,30.52
2018-04-17T09:10:04.278Z,31.05
2018-04-17T09:12:33.276Z,30.74
2018-04-17T09:15:02.612Z,30.96
2018-04-17T09:17:31.607Z,30.61
2018-04-17T09:20:01.359Z,30.30
2018-04-17T09:22:30.396Z,31.62
2018-04-17T09:24:59.401Z,31.32
2018-04-17T09:27:28.401Z,31.35
2018-04-17T09:29:57.415Z,31.68
2018-04-17T09:32:27.177Z,30.98
2018-04-17T09:34:56.507Z,29.88
2018-04-17T09:37:25.514Z,30.14
2018-04-17T09:39:55.289Z,30.05
2018-04-17T09:42:24.290Z,29.44
2018-04-17T09:44:53.292Z,29.04
2018-04-17T09:47:22.291Z,28.75
2018-04-17T09:49:51.279Z,29.03
2018-04-17T09:52:20.287Z,29.61
2018-04-17T09:54:49.291Z,30.02
2018-04-17T09:57:19.068Z,29.30
2018-04-17T09:59:48.060Z,29.14
2018-04-17T10:02:17.409Z,30.09
2018-04-17T10:04:47.155Z,28.55
2018-04-17T10:07:16.165Z,27.89
2018-04-17T10:09:45.204Z,28.07
2018-04-17T10:12:14.198Z,28.32
2018-04-17T10:14:43.198Z,28.88
2018-04-17T10:17:13.379Z,29.80
2018-04-17T10:19:42.398Z,29.38
2018-04-17T10:22:11.392Z,28.80
2018-04-17T10:24:40.410Z,28.09
2018-04-17T10:27:10.188Z,27.80
2018-04-17T10:29:39.206Z,28.02
2018-04-17T10:32:08.205Z,26.57
2018-04-17T10:34:37.238Z,26.02
2018-04-17T10:37:06.253Z,25.41
2018-04-17T10:39:35.272Z,25.61
2018-04-17T10:42:04.270Z,25.72
2018-04-17T10:44:33.286Z,26.45
2018-04-17T10:47:02.282Z,25.70
2018-04-17T10:49:32.060Z,25.30
2018-04-17T10:52:01.066Z,25.42
2018-04-17T10:54:30.050Z,25.46
2018-04-17T10:56:59.062Z,24.47
2018-04-17T10:59:28.090Z,24.64
2018-04-17T11:01:57.864Z,25.70
2018-04-17T11:04:26.875Z,25.62
2018-04-17T11:06:55.867Z,25.20
2018-04-17T11:09:24.878Z,25.08
2018-04-17T11:11:54.651Z,25.60
2018-04-17T11:14:23.651Z,27.05
2018-04-17T11:16:52.670Z,27.05
2018-04-17T11:19:21.699Z,27.00
2018-04-17T11:21:50.721Z,26.30
2018-04-17T11:24:19.729Z,25.09
2018-04-17T11:26:48.716Z,24.72
2018-04-17T11:29:17.742Z,25.39
2018-04-17T11:31:46.722Z,25.20
2018-04-17T11:34:16.032Z,25.30
2018-04-17T11:36:45.039Z,25.36
2018-04-17T11:39:14.055Z,24.21
2018-04-17T11:41:43.805Z,23.84
2018-04-17T11:44:12.803Z,23.43
2018-04-17T11:46:41.810Z,23.31
2018-04-17T11:49:10.805Z,23.57
2018-04-17T11:51:39.842Z,23.86
2018-04-17T11:54:09.591Z,23.85
2018-04-17T11:56:38.887Z,24.61
2018-04-17T11:59:07.916Z,25.01
2018-04-17T12:01:36.926Z,24.98
2018-04-17T12:04:06.246Z,25.05
2018-04-17T12:06:36.017Z,25.50
2018-04-17T12:09:05.774Z,24.22
2018-04-17T12:11:35.532Z,24.39
2018-04-17T12:14:04.537Z,24.01
2018-04-17T12:16:33.542Z,23.41
2018-04-17T12:19:02.565Z,23.33
2018-04-17T12:21:31.559Z,23.09
2018-04-17T12:24:01.656Z,22.75
2018-04-17T12:26:30.647Z,22.65
2018-04-17T12:28:59.634Z,22.79
2018-04-17T12:31:28.661Z,23.53
2018-04-17T12:33:57.654Z,23.50
2018-04-17T12:36:26.657Z,24.37
2018-04-17T12:38:56.440Z,23.68
2018-04-17T12:41:25.449Z,23.59
2018-04-17T12:43:54.458Z,24.45
2018-04-17T12:46:24.228Z,23.66
2018-04-17T12:48:53.230Z,22.92
2018-04-17T12:51:22.254Z,22.33
2018-04-17T12:53:51.256Z,23.15
2018-04-17T12:56:21.014Z,24.20
2018-04-17T12:58:50.401Z,23.80
2018-04-17T13:01:19.936Z,23.73
2018-04-17T13:03:48.937Z,24.12
2018-04-17T13:06:17.955Z,24.03
2018-04-17T13:08:46.981Z,24.33
2018-04-17T13:11:16.739Z,23.92
2018-04-17T13:13:45.717Z,23.59
2018-04-17T13:16:14.758Z,23.06
2018-04-17T13:18:43.757Z,24.89
2018-04-17T13:21:12.748Z,24.90
2018-04-17T13:23:41.753Z,24.37
2018-04-17T13:26:10.768Z,24.19
2018-04-17T13:28:40.534Z,24.13
2018-04-17T13:31:09.527Z,23.65
2018-04-17T13:33:38.561Z,23.67
2018-04-17T13:36:09.106Z,23.31
2018-04-17T13:38:38.138Z,22.96
2018-04-17T13:41:07.453Z,22.94
2018-04-17T13:43:36.475Z,22.21
2018-04-17T13:46:05.483Z,22.85
2018-04-17T13:48:35.236Z,23.22
2018-04-17T13:51:05.053Z,22.69
2018-04-17T13:53:34.780Z,23.16
2018-04-17T13:56:03.783Z,22.54
2018-04-17T13:58:32.803Z,22.53
2018-04-17T14:01:02.554Z,22.76
2018-04-17T14:03:31.546Z,22.06
2018-04-17T14:06:00.555Z,22.72
2018-04-17T14:08:29.579Z,23.48
2018-04-17T14:10:58.570Z,24.33
2018-04-17T14:13:27.580Z,24.30
2018-04-17T14:15:56.589Z,24.31
2018-04-17T14:18:25.578Z,24.70
2018-04-17T14:20:55.363Z,24.68
2018-04-17T14:23:24.370Z,23.83
2018-04-17T14:25:53.681Z,24.14
2018-04-17T14:28:22.666Z,23.97
2018-04-17T14:30:52.589Z,23.90
2018-04-17T14:33:21.576Z,24.10
2018-04-17T14:35:50.566Z,24.23
2018-04-17T14:38:19.607Z,24.19
2018-04-17T14:40:49.350Z,24.83
2018-04-17T14:43:18.383Z,25.18
2018-04-17T14:45:47.394Z,25.80
2018-04-17T14:48:17.485Z,25.57
2018-04-17T14:50:46.478Z,25.23
2018-04-17T14:53:15.466Z,24.66
2018-04-17T14:55:44.506Z,24.19
2018-04-17T14:58:14.250Z,23.59
2018-04-17T15:00:43.275Z,23.22
2018-04-17T15:03:12.266Z,22.61
2018-04-17T15:05:41.252Z,22.39
2018-04-17T15:08:10.271Z,22.48
2018-04-17T15:10:39.306Z,22.05
2018-04-17T15:13:09.051Z,22.18
2018-04-17T15:15:38.354Z,22.42
2018-04-17T15:18:07.373Z,22.72
2018-04-17T15:20:36.369Z,22.56
2018-04-17T15:23:05.386Z,23.00
2018-04-17T15:25:34.383Z,23.79
2018-04-17T15:28:04.173Z,24.54
2018-04-17T15:30:33.196Z,25.11
2018-04-17T15:33:02.942Z,25.50
2018-04-17T15:35:31.954Z,24.76
2018-04-17T15:38:00.980Z,25.16
2018-04-17T15:40:30.306Z,25.65
2018-04-17T15:43:00.382Z,25.71
2018-04-17T15:45:29.717Z,25.82
2018-04-17T15:50:33.150Z,26.25
2018-04-17T15:53:02.905Z,27.04
2018-04-17T15:55:32.222Z,27.33
2018-04-17T15:58:01.560Z,26.91
2018-04-17T16:00:31.380Z,27.29
2018-04-17T16:03:00.371Z,27.20
2018-04-17T16:05:30.230Z,27.11
2018-04-17T16:07:59.215Z,26.59
2018-04-17T16:10:28.211Z,27.30
2018-04-17T16:12:57.563Z,27.83
2018-04-17T16:15:26.646Z,27.76
2018-04-17T16:17:55.647Z,28.07
2018-04-17T16:20:24.706Z,27.90
2018-04-17T16:22:53.710Z,27.85
2018-04-17T16:25:22.719Z,27.61
2018-04-17T16:27:51.732Z,27.54
2018-04-17T16:30:20.731Z,27.75
2018-04-17T16:32:49.758Z,27.86
2018-04-17T16:35:19.505Z,28.17
2018-04-17T16:37:48.540Z,27.83
2018-04-17T16:40:17.562Z,28.18
2018-04-17T16:42:47.321Z,28.05
2018-04-17T16:45:16.328Z,28.74
2018-04-17T16:47:45.351Z,28.58
2018-04-17T16:50:15.119Z,28.29
2018-04-17T16:52:44.429Z,28.88
2018-04-17T16:55:13.461Z,28.84
2018-04-17T16:57:43.238Z,29.14
2018-04-17T17:00:18.471Z,29.17
2018-04-17T17:02:47.572Z,29.23
2018-04-17T17:05:16.874Z,29.36
2018-04-17T17:07:46.215Z,29.30
2018-04-17T17:10:16.330Z,29.61
2018-04-17T17:12:46.406Z,29.72
2018-04-17T17:15:15.737Z,29.48
2018-04-17T17:17:45.077Z,29.35
2018-04-17T17:20:15.143Z,29.69
2018-04-17T17:22:44.514Z,29.33
2018-04-17T17:25:13.881Z,29.60
2018-04-17T17:27:43.207Z,29.89
2018-04-17T17:30:12.557Z,29.59
2018-04-17T17:32:41.900Z,29.91
2018-04-17T17:35:11.984Z,30.21
2018-04-17T17:37:41.321Z,30.38
2018-04-17T17:40:11.458Z,30.28
2018-04-17T17:42:41.542Z,30.18
2018-04-17T17:45:10.871Z,30.42
2018-04-17T17:47:40.954Z,30.63
2018-04-17T17:50:10.273Z,30.80
2018-04-17T17:52:39.601Z,31.09
2018-04-17T17:55:09.691Z,31.17
2018-04-17T17:57:39.081Z,31.32
2018-04-17T18:00:08.825Z,31.36
2018-04-17T18:02:38.975Z,31.57
2018-04-17T18:05:08.329Z,31.78
2018-04-17T18:07:38.473Z,31.97
2018-04-17T18:10:08.572Z,32.97
2018-04-17T18:12:37.945Z,33.34
2018-04-17T18:15:07.297Z,33.45
2018-04-17T18:17:36.605Z,33.72
2018-04-17T18:20:06.724Z,33.78
2018-04-17T18:22:36.249Z,33.97
2018-04-17T18:25:08.747Z,34.09
2018-04-17T18:27:38.552Z,34.34
2018-04-17T18:30:07.887Z,34.66
2018-04-17T18:32:37.419Z,35.13
2018-04-17T18:35:06.764Z,35.51
2018-04-17T18:37:36.101Z,36.40
2018-04-17T18:40:05.413Z,36.78
2018-04-17T18:42:34.757Z,37.38
2018-04-17T18:45:04.875Z,37.98
2018-04-17T18:47:34.955Z,38.29
2018-04-17T18:50:04.314Z,38.58
2018-04-17T18:52:33.628Z,39.24
2018-04-17T18:55:02.949Z,39.42
2018-04-17T18:57:32.274Z,39.39
2018-04-17T19:00:01.611Z,39.39
2018-04-17T19:02:31.599Z,39.19
2018-04-17T19:05:00.923Z,39.09
2018-04-17T19:07:31.015Z,39.52
2018-04-17T19:10:00.340Z,40.22
2018-04-17T19:12:30.439Z,40.74
2018-04-17T19:14:59.780Z,41.11
2018-04-17T19:17:29.855Z,41.24
2018-04-17T19:19:59.237Z,41.48
2018-04-17T19:22:28.556Z,41.94
2018-04-17T19:24:57.864Z,42.55
2018-04-17T19:27:27.196Z,42.75
2018-04-17T19:29:57.275Z,42.60
2018-04-17T19:32:26.593Z,42.94
2018-04-17T19:34:55.950Z,42.77
2018-04-17T19:37:25.259Z,43.36
2018-04-17T19:39:54.597Z,43.69
2018-04-17T19:42:23.924Z,44.03
2018-04-17T19:44:53.259Z,44.42
2018-04-17T19:47:22.570Z,44.63
2018-04-17T19:49:51.915Z,44.72
2018-04-17T19:52:21.256Z,44.20
2018-04-17T19:54:51.336Z,44.38
2018-04-17T19:57:20.651Z,44.51
2018-04-17T19:59:49.990Z,45.03
2018-04-17T20:02:20.056Z,45.37
2018-04-17T20:04:49.807Z,45.73
2018-04-17T20:07:19.919Z,46.12
2018-04-17T20:09:49.225Z,46.47
2018-04-17T20:12:19.323Z,45.89
2018-04-17T20:14:48.646Z,45.50
2018-04-17T20:17:18.893Z,45.78
2018-04-17T20:19:48.214Z,45.83
2018-04-17T20:22:17.525Z,46.27
2018-04-17T20:24:46.846Z,46.45
2018-04-17T20:27:16.191Z,46.43
2018-04-17T20:29:46.270Z,46.49
2018-04-17T20:32:15.638Z,46.64
2018-04-17T20:34:44.945Z,47.01
2018-04-17T20:37:14.265Z,47.14
2018-04-17T20:39:44.546Z,47.31
2018-04-17T20:42:14.645Z,47.78
2018-04-17T20:44:43.967Z,48.36
2018-04-17T20:47:14.085Z,48.52
2018-04-17T20:49:44.166Z,48.69
2018-04-17T20:52:13.513Z,48.87
2018-04-17T20:54:43.634Z,49.11
2018-04-17T20:57:13.748Z,49.51
2018-04-17T20:59:43.890Z,49.53
2018-04-17T21:02:13.219Z,49.24
2018-04-17T21:04:42.560Z,49.27
2018-04-17T21:07:11.877Z,49.11
2018-04-17T21:09:42.008Z,49.00
2018-04-17T21:12:12.963Z,48.79
2018-04-17T21:14:42.316Z,49.72
2018-04-17T21:17:11.666Z,50.40
2018-04-17T21:19:40.973Z,49.95
2018-04-17T21:22:10.289Z,50.01
2018-04-17T21:24:39.648Z,50.36
2018-04-17T21:27:08.962Z,50.51
2018-04-17T21:29:39.092Z,50.73
2018-04-17T21:32:08.431Z,51.79
2018-04-17T21:34:37.792Z,51.64
2018-04-17T21:37:07.901Z,51.19
2018-04-17T21:39:37.986Z,51.50
2018-04-17T21:42:07.305Z,51.54
2018-04-17T21:44:36.638Z,51.99
2018-04-17T21:47:06.740Z,52.10
2018-04-17T21:49:36.059Z,52.56
2018-04-17T21:52:06.185Z,52.78
2018-04-17T21:54:36.265Z,52.91
2018-04-17T21:57:05.617Z,52.85
2018-04-17T21:59:34.955Z,53.26
2018-04-17T22:02:04.317Z,53.61
2018-04-17T22:04:34.461Z,53.57
2018-04-17T22:07:03.823Z,53.60
2018-04-17T22:09:33.157Z,53.39
2018-04-17T22:12:02.495Z,53.63
2018-04-17T22:14:31.878Z,54.03
2018-04-17T22:17:01.206Z,54.63
2018-04-17T22:19:30.555Z,54.80
2018-04-17T22:22:00.692Z,55.05
2018-04-17T22:24:30.058Z,55.27
2018-04-17T22:26:59.418Z,55.33
2018-04-17T22:29:28.749Z,55.32
2018-04-17T22:31:58.106Z,55.34
2018-04-17T22:34:27.439Z,55.60
2018-04-17T22:36:56.760Z,56.06
2018-04-17T22:39:26.126Z,56.06
2018-04-17T22:41:55.470Z,56.53
2018-04-17T22:44:24.814Z,56.67
2018-04-17T22:46:54.174Z,56.53
2018-04-17T22:49:23.517Z,56.67
2018-04-17T22:51:53.610Z,56.89
2018-04-17T22:54:22.959Z,57.19
2018-04-17T22:56:52.291Z,57.18
2018-04-17T22:59:21.608Z,57.19
2018-04-17T23:01:50.961Z,57.54
2018-04-17T23:04:20.298Z,57.55
2018-04-17T23:06:49.630Z,57.92
2018-04-17T23:09:18.981Z,58.20
2018-04-17T23:11:48.334Z,58.30
2018-04-17T23:14:17.666Z,58.24
2018-04-17T23:16:47.978Z,58.52
2018-04-17T23:19:18.079Z,58.78
2018-04-17T23:21:47.411Z,58.98
2018-04-17T23:24:17.539Z,59.07
2018-04-17T23:26:47.630Z,59.12
2018-04-17T23:29:16.973Z,59.33
2018-04-17T23:31:46.298Z,59.59
2018-04-17T23:34:15.622Z,59.41
2018-04-17T23:36:44.972Z,59.04
2018-04-17T23:39:14.310Z,59.22
2018-04-17T23:41:44.428Z,59.47
2018-04-17T23:44:13.747Z,59.62
2018-04-17T23:46:43.144Z,59.54
2018-04-17T23:49:12.484Z,59.44
2018-04-17T23:51:41.801Z,59.67
2018-04-17T23:54:11.903Z,59.84
2018-04-17T23:56:41.262Z,59.94
2018-04-17T23:59:10.591Z,59.95
